sensor_id;sensor_type;location;lat;lon;timestamp;temperature;humidity
32502;DHT22;18952;52.516;13.460;2022-11-15T00:00:52;5.70;99.90
32502;DHT22;18952;52.516;13.460;2022-11-15T00:03:21;5.70;99.90
32502;DHT22;18952;52.516;13.460;2022-11-15T00:05:48;5.70;99.90
32502;DHT22;18952;52.516;13.460;2022-11-15T00:08:15;5.70;99.90
32502;DHT22;18952;52.516;13.460;2022-11-15T00:10:42;5.70;99.90
32502;DHT22;18952;52.516;13.460;2022-11-15T00:13:11;5.70;99.90
32502;DHT22;18952;52.516;13.460;2022-11-15T00:15:40;5.70;99.90
32502;DHT22;18952;52.516;13.460;2022-11-15T00:18:14;5.60;99.90
32502;DHT22;18952;52.516;13.460;2022-11-15T00:20:41;5.60;99.90
32502;DHT22;18952;52.516;13.460;2022-11-15T00:23:08;5.60;99.90
32502;DHT22;18952;52.516;13.460;2022-11-15T00:25:34;5.50;99.90
32502;DHT22;18952;52.516;13.460;2022-11-15T00:28:02;5.50;99.90
32502;DHT22;18952;52.516;13.460;2022-11-15T00:30:28;5.60;99.90
32502;DHT22;18952;52.516;13.460;2022-11-15T00:32:55;5.60;99.90
32502;DHT22;18952;52.516;13.460;2022-11-15T00:35:22;5.60;99.90
32502;DHT22;18952;52.516;13.460;2022-11-15T00:37:49;5.60;99.90
32502;DHT22;18952;52.516;13.460;2022-11-15T00:40:15;5.50;99.90
32502;DHT22;18952;52.516;13.460;2022-11-15T00:42:42;5.60;99.90
32502;DHT22;18952;52.516;13.460;2022-11-15T00:45:09;5.50;99.90
32502;DHT22;18952;52.516;13.460;2022-11-15T00:47:36;5.50;99.90
32502;DHT22;18952;52.516;13.460;2022-11-15T00:50:03;5.50;99.90
32502;DHT22;18952;52.516;13.460;2022-11-15T00:52:30;5.50;99.90
32502;DHT22;18952;52.516;13.460;2022-11-15T00:54:57;5.40;99.90
32502;DHT22;18952;52.516;13.460;2022-11-15T00:57:24;5.40;99.90
32502;DHT22;18952;52.516;13.460;2022-11-15T00:59:50;5.40;99.90
32502;DHT22;18952;52.516;13.460;2022-11-15T01:02:17;5.40;99.90
32502;DHT22;18952;52.516;13.460;2022-11-15T01:04:44;5.40;99.90
32502;DHT22;18952;52.516;13.460;2022-11-15T01:07:11;5.30;99.90
32502;DHT22;18952;52.516;13.460;2022-11-15T01:09:37;5.30;99.90
32502;DHT22;18952;52.516;13.460;2022-11-15T01:12:04;5.40;99.90
32502;DHT22;18952;52.516;13.460;2022-11-15T01:14:31;5.40;99.90
32502;DHT22;18952;52.516;13.460;2022-11-15T01:16:58;5.40;99.90
32502;DHT22;18952;52.516;13.460;2022-11-15T01:19:25;5.30;99.90
32502;DHT22;18952;52.516;13.460;2022-11-15T01:21:51;5.30;99.90
32502;DHT22;18952;52.516;13.460;2022-11-15T01:24:18;5.30;99.90
32502;DHT22;18952;52.516;13.460;2022-11-15T01:26:45;5.30;99.90
32502;DHT22;18952;52.516;13.460;2022-11-15T01:29:12;5.30;99.90
32502;DHT22;18952;52.516;13.460;2022-11-15T01:31:38;5.30;99.90
32502;DHT22;18952;52.516;13.460;2022-11-15T01:34:05;5.30;99.90
32502;DHT22;18952;52.516;13.460;2022-11-15T01:36:32;5.30;99.90
32502;DHT22;18952;52.516;13.460;2022-11-15T01:38:59;5.30;99.90
32502;DHT22;18952;52.516;13.460;2022-11-15T01:41:29;5.30;99.90
32502;DHT22;18952;52.516;13.460;2022-11-15T01:46:46;5.30;99.90
32502;DHT22;18952;52.516;13.460;2022-11-15T01:49:19;5.30;99.90
32502;DHT22;18952;52.516;13.460;2022-11-15T01:51:47;5.30;99.90
32502;DHT22;18952;52.516;13.460;2022-11-15T01:54:16;5.20;99.90
32502;DHT22;18952;52.516;13.460;2022-11-15T01:56:53;5.20;99.90
32502;DHT22;18952;52.516;13.460;2022-11-15T01:59:22;5.20;99.90
32502;DHT22;18952;52.516;13.460;2022-11-15T02:01:49;5.20;99.90
32502;DHT22;18952;52.516;13.460;2022-11-15T02:04:20;5.20;99.90
32502;DHT22;18952;52.516;13.460;2022-11-15T02:06:48;5.20;99.90
32502;DHT22;18952;52.516;13.460;2022-11-15T02:09:16;5.20;99.90
32502;DHT22;18952;52.516;13.460;2022-11-15T02:11:43;5.20;99.90
32502;DHT22;18952;52.516;13.460;2022-11-15T02:14:14;5.20;99.90
32502;DHT22;18952;52.516;13.460;2022-11-15T02:22:33;5.10;99.90
32502;DHT22;18952;52.516;13.460;2022-11-15T02:25:25;5.10;99.90
32502;DHT22;18952;52.516;13.460;2022-11-15T02:38:59;5.10;99.90
32502;DHT22;18952;52.516;13.460;2022-11-15T02:41:35;5.10;99.90
32502;DHT22;18952;52.516;13.460;2022-11-15T02:44:23;5.10;99.90
32502;DHT22;18952;52.516;13.460;2022-11-15T02:46:54;5.10;99.90
32502;DHT22;18952;52.516;13.460;2022-11-15T02:49:24;5.10;99.90
32502;DHT22;18952;52.516;13.460;2022-11-15T02:51:52;5.10;99.90
32502;DHT22;18952;52.516;13.460;2022-11-15T02:54:26;5.10;99.90
32502;DHT22;18952;52.516;13.460;2022-11-15T02:56:56;5.10;99.90
32502;DHT22;18952;52.516;13.460;2022-11-15T02:59:32;5.10;99.90
32502;DHT22;18952;52.516;13.460;2022-11-15T03:08:10;5.10;99.90
32502;DHT22;18952;52.516;13.460;2022-11-15T03:13:02;5.10;99.90
32502;DHT22;18952;52.516;13.460;2022-11-15T03:15:36;5.00;99.90
32502;DHT22;18952;52.516;13.460;2022-11-15T03:18:23;5.00;99.90
32502;DHT22;18952;52.516;13.460;2022-11-15T03:20:54;5.00;99.90
32502;DHT22;18952;52.516;13.460;2022-11-15T03:23:22;5.00;99.90
32502;DHT22;18952;52.516;13.460;2022-11-15T03:25:50;5.00;99.90
32502;DHT22;18952;52.516;13.460;2022-11-15T03:28:31;5.00;99.90
32502;DHT22;18952;52.516;13.460;2022-11-15T03:31:02;5.00;99.90
32502;DHT22;18952;52.516;13.460;2022-11-15T03:33:30;5.00;99.90
32502;DHT22;18952;52.516;13.460;2022-11-15T03:35:57;5.00;99.90
32502;DHT22;18952;52.516;13.460;2022-11-15T03:38:26;5.00;99.90
32502;DHT22;18952;52.516;13.460;2022-11-15T03:41:01;5.00;99.90
32502;DHT22;18952;52.516;13.460;2022-11-15T03:46:19;5.00;99.90
32502;DHT22;18952;52.516;13.460;2022-11-15T03:48:54;5.00;99.90
32502;DHT22;18952;52.516;13.460;2022-11-15T03:51:23;5.00;99.90
32502;DHT22;18952;52.516;13.460;2022-11-15T03:53:50;5.00;99.90
32502;DHT22;18952;52.516;13.460;2022-11-15T03:56:17;5.00;99.90
32502;DHT22;18952;52.516;13.460;2022-11-15T03:58:43;5.00;99.90
32502;DHT22;18952;52.516;13.460;2022-11-15T04:01:10;4.90;99.90
32502;DHT22;18952;52.516;13.460;2022-11-15T04:03:37;5.00;99.90
32502;DHT22;18952;52.516;13.460;2022-11-15T04:06:03;5.00;99.90
32502;DHT22;18952;52.516;13.460;2022-11-15T04:08:30;5.00;99.90
32502;DHT22;18952;52.516;13.460;2022-11-15T04:10:57;5.00;99.90
32502;DHT22;18952;52.516;13.460;2022-11-15T04:13:24;5.00;99.90
32502;DHT22;18952;52.516;13.460;2022-11-15T04:15:51;5.00;99.90
32502;DHT22;18952;52.516;13.460;2022-11-15T04:18:18;5.00;99.90
32502;DHT22;18952;52.516;13.460;2022-11-15T04:20:44;5.00;99.90
32502;DHT22;18952;52.516;13.460;2022-11-15T04:23:15;5.00;99.90
32502;DHT22;18952;52.516;13.460;2022-11-15T04:25:43;5.00;99.90
32502;DHT22;18952;52.516;13.460;2022-11-15T04:28:11;5.00;99.90
32502;DHT22;18952;52.516;13.460;2022-11-15T04:30:38;4.90;99.90
32502;DHT22;18952;52.516;13.460;2022-11-15T04:33:05;5.00;99.90
32502;DHT22;18952;52.516;13.460;2022-11-15T04:35:32;5.00;99.90
32502;DHT22;18952;52.516;13.460;2022-11-15T04:37:59;5.00;99.90
32502;DHT22;18952;52.516;13.460;2022-11-15T04:40:26;5.00;99.90
32502;DHT22;18952;52.516;13.460;2022-11-15T04:42:52;4.90;99.90
32502;DHT22;18952;52.516;13.460;2022-11-15T04:45:21;4.90;99.90
32502;DHT22;18952;52.516;13.460;2022-11-15T04:47:48;4.90;99.90
32502;DHT22;18952;52.516;13.460;2022-11-15T04:50:16;4.90;99.90
32502;DHT22;18952;52.516;13.460;2022-11-15T04:52:50;4.90;99.90
32502;DHT22;18952;52.516;13.460;2022-11-15T04:55:17;4.90;99.90
32502;DHT22;18952;52.516;13.460;2022-11-15T04:57:44;4.90;99.90
32502;DHT22;18952;52.516;13.460;2022-11-15T05:00:13;4.90;99.90
32502;DHT22;18952;52.516;13.460;2022-11-15T05:02:40;4.90;99.90
32502;DHT22;18952;52.516;13.460;2022-11-15T05:05:07;4.90;99.90
32502;DHT22;18952;52.516;13.460;2022-11-15T05:07:34;4.90;99.90
32502;DHT22;18952;52.516;13.460;2022-11-15T05:10:01;4.90;99.90
32502;DHT22;18952;52.516;13.460;2022-11-15T05:12:27;4.90;99.90
32502;DHT22;18952;52.516;13.460;2022-11-15T05:14:54;4.90;99.90
32502;DHT22;18952;52.516;13.460;2022-11-15T05:17:21;4.90;99.90
32502;DHT22;18952;52.516;13.460;2022-11-15T05:19:47;4.90;99.90
32502;DHT22;18952;52.516;13.460;2022-11-15T05:22:14;4.90;99.90
32502;DHT22;18952;52.516;13.460;2022-11-15T05:24:40;4.90;99.90
32502;DHT22;18952;52.516;13.460;2022-11-15T05:27:07;5.00;99.90
32502;DHT22;18952;52.516;13.460;2022-11-15T05:29:34;4.90;99.90
32502;DHT22;18952;52.516;13.460;2022-11-15T05:32:00;5.00;99.90
32502;DHT22;18952;52.516;13.460;2022-11-15T05:34:27;5.00;99.90
32502;DHT22;18952;52.516;13.460;2022-11-15T05:36:54;4.90;99.90
32502;DHT22;18952;52.516;13.460;2022-11-15T05:39:20;4.90;99.90
32502;DHT22;18952;52.516;13.460;2022-11-15T05:42:00;5.00;99.90
32502;DHT22;18952;52.516;13.460;2022-11-15T05:44:29;5.00;99.90
32502;DHT22;18952;52.516;13.460;2022-11-15T05:46:57;5.00;99.90
32502;DHT22;18952;52.516;13.460;2022-11-15T05:49:29;5.00;99.90
32502;DHT22;18952;52.516;13.460;2022-11-15T05:51:57;5.00;99.90
32502;DHT22;18952;52.516;13.460;2022-11-15T05:54:24;5.00;99.90
32502;DHT22;18952;52.516;13.460;2022-11-15T05:56:51;5.00;99.90
32502;DHT22;18952;52.516;13.460;2022-11-15T05:59:19;5.00;99.90
32502;DHT22;18952;52.516;13.460;2022-11-15T06:01:45;5.00;99.90
32502;DHT22;18952;52.516;13.460;2022-11-15T06:04:12;5.00;99.90
32502;DHT22;18952;52.516;13.460;2022-11-15T06:06:39;5.00;99.90
32502;DHT22;18952;52.516;13.460;2022-11-15T06:09:05;5.00;99.90
32502;DHT22;18952;52.516;13.460;2022-11-15T06:11:32;5.00;99.90
32502;DHT22;18952;52.516;13.460;2022-11-15T06:13:59;5.00;99.90
32502;DHT22;18952;52.516;13.460;2022-11-15T06:16:25;5.00;99.90
32502;DHT22;18952;52.516;13.460;2022-11-15T06:18:52;5.00;99.90
32502;DHT22;18952;52.516;13.460;2022-11-15T06:21:19;5.00;99.90
32502;DHT22;18952;52.516;13.460;2022-11-15T06:23:46;5.00;99.90
32502;DHT22;18952;52.516;13.460;2022-11-15T06:26:13;5.00;99.90
32502;DHT22;18952;52.516;13.460;2022-11-15T06:28:39;5.00;99.90
32502;DHT22;18952;52.516;13.460;2022-11-15T06:31:09;5.00;99.90
32502;DHT22;18952;52.516;13.460;2022-11-15T06:33:36;5.00;99.90
32502;DHT22;18952;52.516;13.460;2022-11-15T06:36:05;5.00;99.90
32502;DHT22;18952;52.516;13.460;2022-11-15T06:38:32;5.00;99.90
32502;DHT22;18952;52.516;13.460;2022-11-15T06:41:07;5.00;99.90
32502;DHT22;18952;52.516;13.460;2022-11-15T06:43:35;5.10;99.90
32502;DHT22;18952;52.516;13.460;2022-11-15T06:46:03;5.10;99.90
32502;DHT22;18952;52.516;13.460;2022-11-15T06:48:32;5.10;99.90
32502;DHT22;18952;52.516;13.460;2022-11-15T06:51:00;5.10;99.90
32502;DHT22;18952;52.516;13.460;2022-11-15T06:53:27;5.10;99.90
32502;DHT22;18952;52.516;13.460;2022-11-15T06:56:03;5.10;99.90
32502;DHT22;18952;52.516;13.460;2022-11-15T06:58:30;5.10;99.90
32502;DHT22;18952;52.516;13.460;2022-11-15T07:01:03;5.10;99.90
32502;DHT22;18952;52.516;13.460;2022-11-15T07:03:31;5.10;99.90
32502;DHT22;18952;52.516;13.460;2022-11-15T07:05:59;5.20;99.90
32502;DHT22;18952;52.516;13.460;2022-11-15T07:08:33;5.20;99.90
32502;DHT22;18952;52.516;13.460;2022-11-15T07:11:02;5.20;99.90
32502;DHT22;18952;52.516;13.460;2022-11-15T07:13:30;5.20;99.90
32502;DHT22;18952;52.516;13.460;2022-11-15T07:15:57;5.20;99.90
32502;DHT22;18952;52.516;13.460;2022-11-15T07:18:24;5.30;99.90
32502;DHT22;18952;52.516;13.460;2022-11-15T07:20:51;5.30;99.90
32502;DHT22;18952;52.516;13.460;2022-11-15T07:23:17;5.30;99.90
32502;DHT22;18952;52.516;13.460;2022-11-15T07:25:44;5.40;99.90
32502;DHT22;18952;52.516;13.460;2022-11-15T07:28:12;5.40;99.90
32502;DHT22;18952;52.516;13.460;2022-11-15T07:30:39;5.40;99.90
32502;DHT22;18952;52.516;13.460;2022-11-15T07:33:10;5.40;99.90
32502;DHT22;18952;52.516;13.460;2022-11-15T07:35:37;5.50;99.90
32502;DHT22;18952;52.516;13.460;2022-11-15T07:38:04;5.50;99.90
32502;DHT22;18952;52.516;13.460;2022-11-15T07:40:31;5.50;99.90
32502;DHT22;18952;52.516;13.460;2022-11-15T07:43:02;5.60;99.90
32502;DHT22;18952;52.516;13.460;2022-11-15T07:45:30;5.60;99.90
32502;DHT22;18952;52.516;13.460;2022-11-15T07:47:57;5.70;99.90
32502;DHT22;18952;52.516;13.460;2022-11-15T07:50:24;5.70;99.90
32502;DHT22;18952;52.516;13.460;2022-11-15T07:52:55;5.70;99.90
32502;DHT22;18952;52.516;13.460;2022-11-15T07:55:24;5.80;99.90
32502;DHT22;18952;52.516;13.460;2022-11-15T07:57:51;5.80;99.90
32502;DHT22;18952;52.516;13.460;2022-11-15T08:00:19;5.90;99.90
32502;DHT22;18952;52.516;13.460;2022-11-15T08:02:45;5.90;99.90
32502;DHT22;18952;52.516;13.460;2022-11-15T08:05:12;5.90;99.90
32502;DHT22;18952;52.516;13.460;2022-11-15T08:07:39;6.00;99.90
32502;DHT22;18952;52.516;13.460;2022-11-15T08:10:06;6.00;99.90
32502;DHT22;18952;52.516;13.460;2022-11-15T08:12:33;6.00;99.90
32502;DHT22;18952;52.516;13.460;2022-11-15T08:15:00;6.10;99.90
32502;DHT22;18952;52.516;13.460;2022-11-15T08:17:27;6.10;99.90
32502;DHT22;18952;52.516;13.460;2022-11-15T08:19:54;6.10;99.90
32502;DHT22;18952;52.516;13.460;2022-11-15T08:22:20;6.20;99.90
32502;DHT22;18952;52.516;13.460;2022-11-15T08:24:47;6.20;99.90
32502;DHT22;18952;52.516;13.460;2022-11-15T08:27:14;6.30;99.90
32502;DHT22;18952;52.516;13.460;2022-11-15T08:29:44;6.30;99.90
32502;DHT22;18952;52.516;13.460;2022-11-15T08:32:11;6.40;99.90
32502;DHT22;18952;52.516;13.460;2022-11-15T08:34:38;6.40;99.90
32502;DHT22;18952;52.516;13.460;2022-11-15T08:37:05;6.40;99.90
32502;DHT22;18952;52.516;13.460;2022-11-15T08:39:32;6.50;99.90
32502;DHT22;18952;52.516;13.460;2022-11-15T08:41:59;6.50;99.90
32502;DHT22;18952;52.516;13.460;2022-11-15T08:44:26;6.60;99.90
32502;DHT22;18952;52.516;13.460;2022-11-15T08:46:52;6.60;99.90
32502;DHT22;18952;52.516;13.460;2022-11-15T08:49:19;6.70;99.90
32502;DHT22;18952;52.516;13.460;2022-11-15T08:51:46;6.70;99.90
32502;DHT22;18952;52.516;13.460;2022-11-15T08:54:12;6.80;99.90
32502;DHT22;18952;52.516;13.460;2022-11-15T08:56:39;6.80;99.90
32502;DHT22;18952;52.516;13.460;2022-11-15T08:59:06;6.90;99.90
32502;DHT22;18952;52.516;13.460;2022-11-15T09:01:32;6.90;99.90
32502;DHT22;18952;52.516;13.460;2022-11-15T09:03:59;6.90;99.90
32502;DHT22;18952;52.516;13.460;2022-11-15T09:06:26;7.00;99.90
32502;DHT22;18952;52.516;13.460;2022-11-15T09:08:53;7.00;99.90
32502;DHT22;18952;52.516;13.460;2022-11-15T09:11:20;7.00;99.90
32502;DHT22;18952;52.516;13.460;2022-11-15T09:13:46;7.10;99.90
32502;DHT22;18952;52.516;13.460;2022-11-15T09:16:13;7.10;99.90
32502;DHT22;18952;52.516;13.460;2022-11-15T09:18:40;7.20;99.90
32502;DHT22;18952;52.516;13.460;2022-11-15T09:21:08;7.20;99.90
32502;DHT22;18952;52.516;13.460;2022-11-15T09:23:35;7.20;99.90
32502;DHT22;18952;52.516;13.460;2022-11-15T09:26:03;7.30;99.90
32502;DHT22;18952;52.516;13.460;2022-11-15T09:28:31;7.30;99.90
32502;DHT22;18952;52.516;13.460;2022-11-15T09:31:03;7.40;99.90
32502;DHT22;18952;52.516;13.460;2022-11-15T09:33:30;7.40;99.90
32502;DHT22;18952;52.516;13.460;2022-11-15T09:36:03;7.50;99.90
32502;DHT22;18952;52.516;13.460;2022-11-15T09:38:30;7.60;99.90
32502;DHT22;18952;52.516;13.460;2022-11-15T09:46:57;7.70;99.90
32502;DHT22;18952;52.516;13.460;2022-11-15T09:49:26;7.70;99.90
32502;DHT22;18952;52.516;13.460;2022-11-15T09:51:54;7.80;99.90
32502;DHT22;18952;52.516;13.460;2022-11-15T09:54:32;7.80;99.90
32502;DHT22;18952;52.516;13.460;2022-11-15T09:57:49;7.90;99.90
32502;DHT22;18952;52.516;13.460;2022-11-15T10:00:38;7.90;99.90
32502;DHT22;18952;52.516;13.460;2022-11-15T10:03:30;8.00;99.90
32502;DHT22;18952;52.516;13.460;2022-11-15T10:06:02;8.00;99.90
32502;DHT22;18952;52.516;13.460;2022-11-15T10:08:51;8.10;99.90
32502;DHT22;18952;52.516;13.460;2022-11-15T10:11:22;8.20;99.90
32502;DHT22;18952;52.516;13.460;2022-11-15T10:14:26;8.20;99.90
32502;DHT22;18952;52.516;13.460;2022-11-15T10:20:13;8.30;99.90
32502;DHT22;18952;52.516;13.460;2022-11-15T10:22:53;8.40;99.90
32502;DHT22;18952;52.516;13.460;2022-11-15T10:25:23;8.50;99.90
32502;DHT22;18952;52.516;13.460;2022-11-15T10:30:23;8.60;99.90
32502;DHT22;18952;52.516;13.460;2022-11-15T10:32:50;8.60;99.90
32502;DHT22;18952;52.516;13.460;2022-11-15T10:35:26;8.70;99.90
32502;DHT22;18952;52.516;13.460;2022-11-15T10:38:09;8.70;99.90
32502;DHT22;18952;52.516;13.460;2022-11-15T10:40:37;8.80;99.90
32502;DHT22;18952;52.516;13.460;2022-11-15T10:45:33;8.90;99.90
32502;DHT22;18952;52.516;13.460;2022-11-15T10:50:41;8.90;99.90
32502;DHT22;18952;52.516;13.460;2022-11-15T10:53:40;9.00;99.90
32502;DHT22;18952;52.516;13.460;2022-11-15T10:56:12;9.00;99.90
32502;DHT22;18952;52.516;13.460;2022-11-15T10:58:45;9.10;99.90
32502;DHT22;18952;52.516;13.460;2022-11-15T11:01:22;9.10;99.90
32502;DHT22;18952;52.516;13.460;2022-11-15T11:04:00;9.10;99.90
32502;DHT22;18952;52.516;13.460;2022-11-15T11:06:27;9.20;99.90
32502;DHT22;18952;52.516;13.460;2022-11-15T11:09:00;9.20;99.90
32502;DHT22;18952;52.516;13.460;2022-11-15T11:11:47;9.30;99.90
32502;DHT22;18952;52.516;13.460;2022-11-15T11:22:57;9.50;99.90
32502;DHT22;18952;52.516;13.460;2022-11-15T11:25:34;9.50;99.90
32502;DHT22;18952;52.516;13.460;2022-11-15T11:28:21;9.60;99.90
32502;DHT22;18952;52.516;13.460;2022-11-15T11:33:41;9.60;99.90
32502;DHT22;18952;52.516;13.460;2022-11-15T11:42:10;9.80;99.90
32502;DHT22;18952;52.516;13.460;2022-11-15T11:44:53;9.90;99.90
32502;DHT22;18952;52.516;13.460;2022-11-15T11:47:30;10.00;99.90
32502;DHT22;18952;52.516;13.460;2022-11-15T11:50:01;10.10;99.90
32502;DHT22;18952;52.516;13.460;2022-11-15T11:53:09;10.20;99.90
32502;DHT22;18952;52.516;13.460;2022-11-15T11:55:34;10.30;99.90
32502;DHT22;18952;52.516;13.460;2022-11-15T12:00:56;10.40;99.90
32502;DHT22;18952;52.516;13.460;2022-11-15T12:06:04;10.60;99.90
32502;DHT22;18952;52.516;13.460;2022-11-15T12:08:45;10.70;99.90
32502;DHT22;18952;52.516;13.460;2022-11-15T12:11:37;10.80;99.90
32502;DHT22;18952;52.516;13.460;2022-11-15T12:14:14;10.90;99.90
32502;DHT22;18952;52.516;13.460;2022-11-15T12:16:43;11.00;99.90
32502;DHT22;18952;52.516;13.460;2022-11-15T12:19:09;11.10;99.90
32502;DHT22;18952;52.516;13.460;2022-11-15T12:21:46;11.20;99.90
32502;DHT22;18952;52.516;13.460;2022-11-15T12:26:52;11.50;99.90
32502;DHT22;18952;52.516;13.460;2022-11-15T12:29:33;11.50;99.90
32502;DHT22;18952;52.516;13.460;2022-11-15T12:32:02;11.70;99.90
32502;DHT22;18952;52.516;13.460;2022-11-15T12:34:39;11.80;99.90
32502;DHT22;18952;52.516;13.460;2022-11-15T12:37:44;11.90;99.90
32502;DHT22;18952;52.516;13.460;2022-11-15T12:41:12;12.10;99.90
32502;DHT22;18952;52.516;13.460;2022-11-15T12:43:42;12.20;99.90
32502;DHT22;18952;52.516;13.460;2022-11-15T12:49:23;12.50;99.90
32502;DHT22;18952;52.516;13.460;2022-11-15T12:59:53;12.90;99.90
32502;DHT22;18952;52.516;13.460;2022-11-15T13:02:33;13.00;99.90
32502;DHT22;18952;52.516;13.460;2022-11-15T13:17:52;13.50;99.90
32502;DHT22;18952;52.516;13.460;2022-11-15T13:20:31;13.60;99.90
32502;DHT22;18952;52.516;13.460;2022-11-15T13:23:12;13.70;99.90
32502;DHT22;18952;52.516;13.460;2022-11-15T13:25:57;13.70;99.90
32502;DHT22;18952;52.516;13.460;2022-11-15T13:31:30;13.90;99.90
32502;DHT22;18952;52.516;13.460;2022-11-15T13:37:12;13.90;99.90
32502;DHT22;18952;52.516;13.460;2022-11-15T13:39:53;14.00;99.90
32502;DHT22;18952;52.516;13.460;2022-11-15T13:42:20;14.00;99.90
32502;DHT22;18952;52.516;13.460;2022-11-15T13:45:01;14.10;99.90
32502;DHT22;18952;52.516;13.460;2022-11-15T13:47:29;14.10;99.90
32502;DHT22;18952;52.516;13.460;2022-11-15T13:49:59;14.10;99.90
32502;DHT22;18952;52.516;13.460;2022-11-15T13:52:32;14.20;99.90
32502;DHT22;18952;52.516;13.460;2022-11-15T13:55:03;14.20;99.90
32502;DHT22;18952;52.516;13.460;2022-11-15T13:57:42;14.20;99.90
32502;DHT22;18952;52.516;13.460;2022-11-15T14:02:57;14.00;99.90
32502;DHT22;18952;52.516;13.460;2022-11-15T14:05:31;13.80;99.90
32502;DHT22;18952;52.516;13.460;2022-11-15T14:08:05;13.70;99.90
32502;DHT22;18952;52.516;13.460;2022-11-15T14:10:39;13.50;99.90
32502;DHT22;18952;52.516;13.460;2022-11-15T14:13:28;13.40;99.90
32502;DHT22;18952;52.516;13.460;2022-11-15T14:16:13;13.20;99.90
32502;DHT22;18952;52.516;13.460;2022-11-15T14:21:09;12.90;99.90
32502;DHT22;18952;52.516;13.460;2022-11-15T14:23:36;12.70;99.90
32502;DHT22;18952;52.516;13.460;2022-11-15T14:26:03;12.60;99.90
32502;DHT22;18952;52.516;13.460;2022-11-15T14:28:37;12.50;99.90
32502;DHT22;18952;52.516;13.460;2022-11-15T14:31:11;12.40;99.90
32502;DHT22;18952;52.516;13.460;2022-11-15T14:33:39;12.30;99.90
32502;DHT22;18952;52.516;13.460;2022-11-15T14:36:12;12.20;99.90
32502;DHT22;18952;52.516;13.460;2022-11-15T14:38:39;12.10;99.90
32502;DHT22;18952;52.516;13.460;2022-11-15T14:41:17;12.00;99.90
32502;DHT22;18952;52.516;13.460;2022-11-15T14:43:44;11.90;99.90
32502;DHT22;18952;52.516;13.460;2022-11-15T14:46:20;11.80;99.90
32502;DHT22;18952;52.516;13.460;2022-11-15T14:48:48;11.80;99.90
32502;DHT22;18952;52.516;13.460;2022-11-15T14:51:17;11.70;99.90
32502;DHT22;18952;52.516;13.460;2022-11-15T14:53:50;11.60;99.90
32502;DHT22;18952;52.516;13.460;2022-11-15T14:56:17;11.50;99.90
32502;DHT22;18952;52.516;13.460;2022-11-15T14:58:44;11.50;99.90
32502;DHT22;18952;52.516;13.460;2022-11-15T15:01:20;11.40;99.90
32502;DHT22;18952;52.516;13.460;2022-11-15T15:03:48;11.30;99.90
32502;DHT22;18952;52.516;13.460;2022-11-15T15:06:14;11.20;99.90
32502;DHT22;18952;52.516;13.460;2022-11-15T15:08:46;11.20;99.90
32502;DHT22;18952;52.516;13.460;2022-11-15T15:11:19;11.10;99.90
32502;DHT22;18952;52.516;13.460;2022-11-15T15:13:51;11.10;99.90
32502;DHT22;18952;52.516;13.460;2022-11-15T15:16:18;11.00;99.90
32502;DHT22;18952;52.516;13.460;2022-11-15T15:18:46;11.00;99.90
32502;DHT22;18952;52.516;13.460;2022-11-15T15:24:15;10.90;99.90
32502;DHT22;18952;52.516;13.460;2022-11-15T15:26:42;10.80;99.90
32502;DHT22;18952;52.516;13.460;2022-11-15T15:29:10;10.70;99.90
32502;DHT22;18952;52.516;13.460;2022-11-15T15:31:38;10.70;99.90
32502;DHT22;18952;52.516;13.460;2022-11-15T15:34:05;10.60;99.90
32502;DHT22;18952;52.516;13.460;2022-11-15T15:36:34;10.60;99.90
32502;DHT22;18952;52.516;13.460;2022-11-15T15:39:05;10.50;99.90
32502;DHT22;18952;52.516;13.460;2022-11-15T15:41:31;10.50;99.90
32502;DHT22;18952;52.516;13.460;2022-11-15T15:43:58;10.40;99.90
32502;DHT22;18952;52.516;13.460;2022-11-15T15:46:25;10.40;99.90
32502;DHT22;18952;52.516;13.460;2022-11-15T15:48:52;10.30;99.90
32502;DHT22;18952;52.516;13.460;2022-11-15T15:51:19;10.30;99.90
32502;DHT22;18952;52.516;13.460;2022-11-15T15:53:47;10.30;99.90
32502;DHT22;18952;52.516;13.460;2022-11-15T15:56:14;10.20;99.90
32502;DHT22;18952;52.516;13.460;2022-11-15T15:58:41;10.20;99.90
32502;DHT22;18952;52.516;13.460;2022-11-15T16:01:08;10.20;99.90
32502;DHT22;18952;52.516;13.460;2022-11-15T16:03:35;10.10;99.90
32502;DHT22;18952;52.516;13.460;2022-11-15T16:06:02;10.10;99.90
32502;DHT22;18952;52.516;13.460;2022-11-15T16:08:29;10.10;99.90
32502;DHT22;18952;52.516;13.460;2022-11-15T16:11:15;10.10;99.90
32502;DHT22;18952;52.516;13.460;2022-11-15T16:13:42;10.00;99.90
32502;DHT22;18952;52.516;13.460;2022-11-15T16:16:13;10.00;99.90
32502;DHT22;18952;52.516;13.460;2022-11-15T16:18:40;10.00;99.90
32502;DHT22;18952;52.516;13.460;2022-11-15T16:21:08;9.90;99.90
32502;DHT22;18952;52.516;13.460;2022-11-15T16:23:35;9.90;99.90
32502;DHT22;18952;52.516;13.460;2022-11-15T16:26:02;9.80;99.90
32502;DHT22;18952;52.516;13.460;2022-11-15T16:28:33;9.80;99.90
32502;DHT22;18952;52.516;13.460;2022-11-15T16:33:27;9.70;99.90
32502;DHT22;18952;52.516;13.460;2022-11-15T16:35:54;9.60;99.90
32502;DHT22;18952;52.516;13.460;2022-11-15T16:38:21;9.60;99.90
32502;DHT22;18952;52.516;13.460;2022-11-15T16:40:48;9.60;99.90
32502;DHT22;18952;52.516;13.460;2022-11-15T16:43:15;9.50;99.90
32502;DHT22;18952;52.516;13.460;2022-11-15T16:45:42;9.50;99.90
32502;DHT22;18952;52.516;13.460;2022-11-15T16:48:26;9.40;99.90
32502;DHT22;18952;52.516;13.460;2022-11-15T16:50:57;9.40;99.90
32502;DHT22;18952;52.516;13.460;2022-11-15T16:53:26;9.30;99.90
32502;DHT22;18952;52.516;13.460;2022-11-15T16:55:54;9.30;99.90
32502;DHT22;18952;52.516;13.460;2022-11-15T16:58:21;9.20;99.90
32502;DHT22;18952;52.516;13.460;2022-11-15T17:00:55;9.20;99.90
32502;DHT22;18952;52.516;13.460;2022-11-15T17:03:23;9.10;99.90
32502;DHT22;18952;52.516;13.460;2022-11-15T17:05:50;9.10;99.90
32502;DHT22;18952;52.516;13.460;2022-11-15T17:08:17;9.00;99.90
32502;DHT22;18952;52.516;13.460;2022-11-15T17:10:44;8.90;99.90
32502;DHT22;18952;52.516;13.460;2022-11-15T17:13:12;8.90;99.90
32502;DHT22;18952;52.516;13.460;2022-11-15T17:15:38;8.90;99.90
32502;DHT22;18952;52.516;13.460;2022-11-15T17:18:06;8.80;99.90
32502;DHT22;18952;52.516;13.460;2022-11-15T17:20:32;8.80;99.90
32502;DHT22;18952;52.516;13.460;2022-11-15T17:22:59;8.70;99.90
32502;DHT22;18952;52.516;13.460;2022-11-15T17:25:26;8.70;99.90
32502;DHT22;18952;52.516;13.460;2022-11-15T17:27:52;8.70;99.90
32502;DHT22;18952;52.516;13.460;2022-11-15T17:30:21;8.60;99.90
32502;DHT22;18952;52.516;13.460;2022-11-15T17:32:48;8.60;99.90
32502;DHT22;18952;52.516;13.460;2022-11-15T17:35:14;8.50;99.90
32502;DHT22;18952;52.516;13.460;2022-11-15T17:37:43;8.50;99.90
32502;DHT22;18952;52.516;13.460;2022-11-15T17:40:10;8.40;99.90